sensor_id;sensor_type;location;lat;lon;timestamp;P1;durP1;ratioP1;P2;durP2;ratioP2
74636;SDS011;63141;54.616;39.754;2023-04-29T00:02:25;96.13;;;41.17;;
74636;SDS011;63141;54.616;39.754;2023-04-29T00:05:27;86.97;;;36.97;;
74636;SDS011;63141;54.616;39.754;2023-04-29T00:08:30;83.85;;;38.47;;
74636;SDS011;63141;54.616;39.754;2023-04-29T00:11:39;80.53;;;35.25;;
74636;SDS011;63141;54.616;39.754;2023-04-29T00:14:43;82.80;;;37.47;;
74636;SDS011;63141;54.616;39.754;2023-04-29T00:17:44;77.57;;;35.90;;
74636;SDS011;63141;54.616;39.754;2023-04-29T00:20:45;71.53;;;34.45;;
74636;SDS011;63141;54.616;39.754;2023-04-29T00:23:47;82.60;;;36.05;;
74636;SDS011;63141;54.616;39.754;2023-04-29T00:26:48;78.30;;;33.95;;
74636;SDS011;63141;54.616;39.754;2023-04-29T00:29:49;74.55;;;33.90;;
74636;SDS011;63141;54.616;39.754;2023-04-29T00:32:51;69.30;;;32.97;;
74636;SDS011;63141;54.616;39.754;2023-04-29T00:35:53;67.72;;;32.53;;
74636;SDS011;63141;54.616;39.754;2023-04-29T00:38:54;67.00;;;31.73;;
74636;SDS011;63141;54.616;39.754;2023-04-29T00:41:58;68.78;;;32.20;;
74636;SDS011;63141;54.616;39.754;2023-04-29T00:45:00;64.22;;;30.33;;
74636;SDS011;63141;54.616;39.754;2023-04-29T00:48:02;66.03;;;30.50;;
74636;SDS011;63141;54.616;39.754;2023-04-29T00:51:06;66.00;;;30.33;;
74636;SDS011;63141;54.616;39.754;2023-04-29T00:54:08;63.25;;;29.38;;
74636;SDS011;63141;54.616;39.754;2023-04-29T00:57:11;57.17;;;27.20;;
74636;SDS011;63141;54.616;39.754;2023-04-29T01:00:13;53.05;;;27.95;;
74636;SDS011;63141;54.616;39.754;2023-04-29T01:03:20;59.30;;;27.35;;
74636;SDS011;63141;54.616;39.754;2023-04-29T01:10:03;60.50;;;27.77;;
74636;SDS011;63141;54.616;39.754;2023-04-29T01:14:02;58.43;;;27.97;;
74636;SDS011;63141;54.616;39.754;2023-04-29T01:17:10;52.90;;;26.30;;
74636;SDS011;63141;54.616;39.754;2023-04-29T01:20:18;48.80;;;24.23;;
74636;SDS011;63141;54.616;39.754;2023-04-29T01:23:25;52.53;;;25.48;;
74636;SDS011;63141;54.616;39.754;2023-04-29T01:26:27;48.58;;;24.40;;
74636;SDS011;63141;54.616;39.754;2023-04-29T01:36:03;47.33;;;23.63;;
74636;SDS011;63141;54.616;39.754;2023-04-29T01:39:24;40.65;;;21.50;;
74636;SDS011;63141;54.616;39.754;2023-04-29T01:42:56;40.72;;;20.80;;
74636;SDS011;63141;54.616;39.754;2023-04-29T01:46:01;45.58;;;22.45;;
74636;SDS011;63141;54.616;39.754;2023-04-29T01:49:09;41.53;;;21.30;;
74636;SDS011;63141;54.616;39.754;2023-04-29T01:52:11;45.55;;;21.58;;
74636;SDS011;63141;54.616;39.754;2023-04-29T01:55:24;39.35;;;20.55;;
74636;SDS011;63141;54.616;39.754;2023-04-29T01:58:36;41.90;;;20.67;;
74636;SDS011;63141;54.616;39.754;2023-04-29T02:02:07;38.15;;;19.48;;
74636;SDS011;63141;54.616;39.754;2023-04-29T02:05:15;37.75;;;18.85;;
74636;SDS011;63141;54.616;39.754;2023-04-29T02:08:26;36.88;;;18.25;;
74636;SDS011;63141;54.616;39.754;2023-04-29T02:11:29;33.53;;;17.33;;
74636;SDS011;63141;54.616;39.754;2023-04-29T02:14:32;33.42;;;17.05;;
74636;SDS011;63141;54.616;39.754;2023-04-29T02:17:34;34.35;;;16.90;;
74636;SDS011;63141;54.616;39.754;2023-04-29T02:20:35;33.08;;;17.02;;
74636;SDS011;63141;54.616;39.754;2023-04-29T02:23:39;35.13;;;16.75;;
74636;SDS011;63141;54.616;39.754;2023-04-29T02:26:40;32.50;;;16.55;;
74636;SDS011;63141;54.616;39.754;2023-04-29T02:29:42;32.45;;;16.55;;
74636;SDS011;63141;54.616;39.754;2023-04-29T02:32:43;31.15;;;15.38;;
74636;SDS011;63141;54.616;39.754;2023-04-29T02:35:48;32.35;;;15.57;;
74636;SDS011;63141;54.616;39.754;2023-04-29T02:38:52;30.17;;;15.98;;
74636;SDS011;63141;54.616;39.754;2023-04-29T02:41:56;28.40;;;14.52;;
74636;SDS011;63141;54.616;39.754;2023-04-29T02:44:58;27.77;;;13.88;;
74636;SDS011;63141;54.616;39.754;2023-04-29T02:47:59;30.17;;;14.65;;
74636;SDS011;63141;54.616;39.754;2023-04-29T02:51:01;26.48;;;14.05;;
74636;SDS011;63141;54.616;39.754;2023-04-29T02:54:02;28.25;;;13.57;;
74636;SDS011;63141;54.616;39.754;2023-04-29T02:57:03;24.90;;;14.30;;
74636;SDS011;63141;54.616;39.754;2023-04-29T03:00:05;20.80;;;12.07;;
74636;SDS011;63141;54.616;39.754;2023-04-29T03:03:12;26.08;;;13.05;;
74636;SDS011;63141;54.616;39.754;2023-04-29T03:06:13;26.05;;;13.32;;
74636;SDS011;63141;54.616;39.754;2023-04-29T03:09:15;22.13;;;12.85;;
74636;SDS011;63141;54.616;39.754;2023-04-29T03:12:19;23.30;;;12.60;;
74636;SDS011;63141;54.616;39.754;2023-04-29T03:15:21;23.23;;;12.00;;
74636;SDS011;63141;54.616;39.754;2023-04-29T03:18:23;23.23;;;12.40;;
74636;SDS011;63141;54.616;39.754;2023-04-29T03:21:24;20.05;;;11.32;;
74636;SDS011;63141;54.616;39.754;2023-04-29T03:24:27;22.63;;;11.07;;
74636;SDS011;63141;54.616;39.754;2023-04-29T03:27:29;20.92;;;11.82;;
74636;SDS011;63141;54.616;39.754;2023-04-29T03:30:30;19.65;;;10.68;;
74636;SDS011;63141;54.616;39.754;2023-04-29T03:33:35;24.70;;;11.10;;
74636;SDS011;63141;54.616;39.754;2023-04-29T03:36:36;26.05;;;11.05;;
74636;SDS011;63141;54.616;39.754;2023-04-29T03:39:41;18.40;;;9.80;;
74636;SDS011;63141;54.616;39.754;2023-04-29T03:42:42;19.02;;;10.32;;
74636;SDS011;63141;54.616;39.754;2023-04-29T03:45:44;18.42;;;10.02;;
74636;SDS011;63141;54.616;39.754;2023-04-29T03:48:47;17.02;;;9.98;;
74636;SDS011;63141;54.616;39.754;2023-04-29T03:51:49;19.52;;;9.75;;
74636;SDS011;63141;54.616;39.754;2023-04-29T03:54:51;17.75;;;9.00;;
74636;SDS011;63141;54.616;39.754;2023-04-29T03:57:55;16.27;;;7.78;;
74636;SDS011;63141;54.616;39.754;2023-04-29T04:01:00;13.75;;;7.93;;
74636;SDS011;63141;54.616;39.754;2023-04-29T04:04:11;14.88;;;8.15;;
74636;SDS011;63141;54.616;39.754;2023-04-29T04:07:18;16.00;;;7.72;;
74636;SDS011;63141;54.616;39.754;2023-04-29T04:10:42;14.88;;;6.95;;
74636;SDS011;63141;54.616;39.754;2023-04-29T04:14:04;15.13;;;7.60;;
74636;SDS011;63141;54.616;39.754;2023-04-29T04:17:06;15.70;;;6.68;;
74636;SDS011;63141;54.616;39.754;2023-04-29T04:20:11;19.63;;;6.88;;
74636;SDS011;63141;54.616;39.754;2023-04-29T04:23:16;18.15;;;5.85;;
74636;SDS011;63141;54.616;39.754;2023-04-29T04:26:18;12.73;;;5.80;;
74636;SDS011;63141;54.616;39.754;2023-04-29T04:29:34;10.95;;;5.95;;
74636;SDS011;63141;54.616;39.754;2023-04-29T04:32:43;9.10;;;5.97;;
74636;SDS011;63141;54.616;39.754;2023-04-29T04:35:47;14.82;;;6.03;;
74636;SDS011;63141;54.616;39.754;2023-04-29T04:38:55;14.15;;;5.50;;
74636;SDS011;63141;54.616;39.754;2023-04-29T04:41:57;10.05;;;5.18;;
74636;SDS011;63141;54.616;39.754;2023-04-29T04:45:04;15.13;;;4.50;;
74636;SDS011;63141;54.616;39.754;2023-04-29T04:48:16;13.35;;;5.20;;
74636;SDS011;63141;54.616;39.754;2023-04-29T04:51:19;10.57;;;4.75;;
74636;SDS011;63141;54.616;39.754;2023-04-29T04:54:21;12.23;;;4.88;;
74636;SDS011;63141;54.616;39.754;2023-04-29T04:57:26;16.27;;;5.37;;
74636;SDS011;63141;54.616;39.754;2023-04-29T05:00:32;14.88;;;4.20;;
74636;SDS011;63141;54.616;39.754;2023-04-29T05:03:39;13.07;;;4.30;;
74636;SDS011;63141;54.616;39.754;2023-04-29T05:06:41;9.73;;;4.10;;
74636;SDS011;63141;54.616;39.754;2023-04-29T05:09:42;10.77;;;3.90;;
74636;SDS011;63141;54.616;39.754;2023-04-29T05:12:44;12.90;;;4.00;;
74636;SDS011;63141;54.616;39.754;2023-04-29T05:15:45;15.65;;;4.50;;
74636;SDS011;63141;54.616;39.754;2023-04-29T05:19:06;14.85;;;4.72;;
74636;SDS011;63141;54.616;39.754;2023-04-29T05:22:11;9.23;;;2.97;;
74636;SDS011;63141;54.616;39.754;2023-04-29T05:25:21;9.38;;;2.80;;
74636;SDS011;63141;54.616;39.754;2023-04-29T05:28:31;13.80;;;3.13;;
74636;SDS011;63141;54.616;39.754;2023-04-29T05:31:36;15.68;;;2.90;;
74636;SDS011;63141;54.616;39.754;2023-04-29T05:34:41;9.00;;;2.75;;
74636;SDS011;63141;54.616;39.754;2023-04-29T05:37:44;9.50;;;2.33;;
74636;SDS011;63141;54.616;39.754;2023-04-29T05:41:11;5.40;;;2.40;;
74636;SDS011;63141;54.616;39.754;2023-04-29T05:44:31;9.07;;;2.42;;
74636;SDS011;63141;54.616;39.754;2023-04-29T05:47:33;10.65;;;2.40;;
74636;SDS011;63141;54.616;39.754;2023-04-29T05:50:34;12.70;;;2.55;;
74636;SDS011;63141;54.616;39.754;2023-04-29T05:53:38;7.63;;;2.17;;
74636;SDS011;63141;54.616;39.754;2023-04-29T05:56:43;7.50;;;2.92;;
74636;SDS011;63141;54.616;39.754;2023-04-29T05:59:48;8.27;;;2.60;;
74636;SDS011;63141;54.616;39.754;2023-04-29T06:02:52;5.20;;;2.03;;
74636;SDS011;63141;54.616;39.754;2023-04-29T06:06:02;4.25;;;2.28;;
74636;SDS011;63141;54.616;39.754;2023-04-29T06:09:34;6.53;;;2.22;;
74636;SDS011;63141;54.616;39.754;2023-04-29T06:12:39;4.80;;;1.98;;
74636;SDS011;63141;54.616;39.754;2023-04-29T06:15:50;5.30;;;2.00;;
74636;SDS011;63141;54.616;39.754;2023-04-29T06:19:02;7.30;;;1.40;;
74636;SDS011;63141;54.616;39.754;2023-04-29T06:22:03;7.47;;;2.00;;
74636;SDS011;63141;54.616;39.754;2023-04-29T06:28:22;5.15;;;2.08;;
74636;SDS011;63141;54.616;39.754;2023-04-29T06:31:29;7.55;;;1.77;;
74636;SDS011;63141;54.616;39.754;2023-04-29T06:34:35;6.23;;;1.70;;
74636;SDS011;63141;54.616;39.754;2023-04-29T06:38:06;5.90;;;1.90;;
74636;SDS011;63141;54.616;39.754;2023-04-29T06:41:28;8.77;;;1.77;;
74636;SDS011;63141;54.616;39.754;2023-04-29T06:45:03;5.38;;;1.85;;
74636;SDS011;63141;54.616;39.754;2023-04-29T06:48:14;3.25;;;1.60;;
74636;SDS011;63141;54.616;39.754;2023-04-29T06:51:32;7.30;;;2.22;;
74636;SDS011;63141;54.616;39.754;2023-04-29T06:54:41;3.17;;;1.63;;
74636;SDS011;63141;54.616;39.754;2023-04-29T06:57:46;3.70;;;1.90;;
74636;SDS011;63141;54.616;39.754;2023-04-29T07:00:49;10.60;;;1.83;;
74636;SDS011;63141;54.616;39.754;2023-04-29T07:04:10;5.18;;;1.90;;
74636;SDS011;63141;54.616;39.754;2023-04-29T07:07:13;4.22;;;1.63;;
74636;SDS011;63141;54.616;39.754;2023-04-29T07:10:23;4.85;;;1.58;;
74636;SDS011;63141;54.616;39.754;2023-04-29T07:13:28;5.15;;;1.70;;
74636;SDS011;63141;54.616;39.754;2023-04-29T07:16:38;4.50;;;1.77;;
74636;SDS011;63141;54.616;39.754;2023-04-29T07:19:49;19.45;;;10.02;;
74636;SDS011;63141;54.616;39.754;2023-04-29T07:22:59;32.25;;;14.50;;
74636;SDS011;63141;54.616;39.754;2023-04-29T07:26:16;76.70;;;44.17;;
74636;SDS011;63141;54.616;39.754;2023-04-29T07:29:36;268.42;;;137.02;;
74636;SDS011;63141;54.616;39.754;2023-04-29T07:32:49;226.60;;;110.70;;
74636;SDS011;63141;54.616;39.754;2023-04-29T07:36:01;219.95;;;112.03;;
74636;SDS011;63141;54.616;39.754;2023-04-29T07:39:17;231.20;;;118.32;;
74636;SDS011;63141;54.616;39.754;2023-04-29T07:42:22;202.82;;;101.22;;
74636;SDS011;63141;54.616;39.754;2023-04-29T07:45:40;204.40;;;100.70;;
74636;SDS011;63141;54.616;39.754;2023-04-29T07:49:08;193.95;;;96.35;;
74636;SDS011;63141;54.616;39.754;2023-04-29T07:52:10;183.85;;;94.07;;
74636;SDS011;63141;54.616;39.754;2023-04-29T07:55:29;188.50;;;94.80;;
74636;SDS011;63141;54.616;39.754;2023-04-29T07:58:44;181.18;;;85.50;;
74636;SDS011;63141;54.616;39.754;2023-04-29T08:02:09;187.00;;;90.22;;
74636;SDS011;63141;54.616;39.754;2023-04-29T08:05:14;175.60;;;89.63;;
74636;SDS011;63141;54.616;39.754;2023-04-29T08:08:33;182.23;;;89.43;;
74636;SDS011;63141;54.616;39.754;2023-04-29T08:11:38;163.85;;;81.93;;
74636;SDS011;63141;54.616;39.754;2023-04-29T08:14:53;160.50;;;78.45;;
74636;SDS011;63141;54.616;39.754;2023-04-29T08:18:03;160.52;;;80.25;;
74636;SDS011;63141;54.616;39.754;2023-04-29T08:21:07;146.85;;;76.88;;
74636;SDS011;63141;54.616;39.754;2023-04-29T08:24:24;145.30;;;73.95;;
74636;SDS011;63141;54.616;39.754;2023-04-29T08:27:35;142.15;;;74.10;;
74636;SDS011;63141;54.616;39.754;2023-04-29T08:30:46;146.57;;;71.78;;
74636;SDS011;63141;54.616;39.754;2023-04-29T08:33:59;162.48;;;78.18;;
74636;SDS011;63141;54.616;39.754;2023-04-29T08:37:03;140.55;;;67.60;;
74636;SDS011;63141;54.616;39.754;2023-04-29T08:40:16;134.75;;;68.07;;
74636;SDS011;63141;54.616;39.754;2023-04-29T08:43:28;134.75;;;67.47;;
74636;SDS011;63141;54.616;39.754;2023-04-29T08:46:35;132.88;;;65.70;;
74636;SDS011;63141;54.616;39.754;2023-04-29T08:49:40;125.35;;;65.00;;
74636;SDS011;63141;54.616;39.754;2023-04-29T08:52:50;125.63;;;62.33;;
74636;SDS011;63141;54.616;39.754;2023-04-29T08:56:15;110.00;;;57.67;;
74636;SDS011;63141;54.616;39.754;2023-04-29T09:02:44;110.30;;;57.85;;
74636;SDS011;63141;54.616;39.754;2023-04-29T09:06:04;112.90;;;57.17;;
74636;SDS011;63141;54.616;39.754;2023-04-29T09:09:15;114.10;;;58.25;;
74636;SDS011;63141;54.616;39.754;2023-04-29T09:12:20;110.70;;;56.08;;
74636;SDS011;63141;54.616;39.754;2023-04-29T09:15:24;123.75;;;58.70;;
74636;SDS011;63141;54.616;39.754;2023-04-29T09:18:48;112.70;;;58.90;;
74636;SDS011;63141;54.616;39.754;2023-04-29T09:22:08;107.35;;;53.75;;
74636;SDS011;63141;54.616;39.754;2023-04-29T09:25:17;112.35;;;56.72;;
74636;SDS011;63141;54.616;39.754;2023-04-29T09:28:21;113.38;;;57.55;;
74636;SDS011;63141;54.616;39.754;2023-04-29T09:31:38;110.90;;;53.08;;
74636;SDS011;63141;54.616;39.754;2023-04-29T09:34:46;107.18;;;53.17;;
74636;SDS011;63141;54.616;39.754;2023-04-29T09:38:06;101.68;;;52.47;;
74636;SDS011;63141;54.616;39.754;2023-04-29T09:41:42;106.22;;;52.45;;
74636;SDS011;63141;54.616;39.754;2023-04-29T09:45:01;90.93;;;49.25;;
74636;SDS011;63141;54.616;39.754;2023-04-29T09:48:15;96.68;;;48.72;;
74636;SDS011;63141;54.616;39.754;2023-04-29T09:51:51;101.32;;;48.65;;
74636;SDS011;63141;54.616;39.754;2023-04-29T09:55:03;88.15;;;47.17;;
74636;SDS011;63141;54.616;39.754;2023-04-29T10:01:47;79.25;;;42.60;;
74636;SDS011;63141;54.616;39.754;2023-04-29T10:04:57;82.47;;;41.60;;
74636;SDS011;63141;54.616;39.754;2023-04-29T10:08:20;74.40;;;39.42;;
74636;SDS011;63141;54.616;39.754;2023-04-29T10:11:30;73.88;;;38.78;;
74636;SDS011;63141;54.616;39.754;2023-04-29T10:14:47;70.20;;;36.38;;
74636;SDS011;63141;54.616;39.754;2023-04-29T10:18:29;67.15;;;37.20;;
74636;SDS011;63141;54.616;39.754;2023-04-29T10:22:06;66.80;;;35.28;;
74636;SDS011;63141;54.616;39.754;2023-04-29T10:25:14;65.22;;;35.67;;
74636;SDS011;63141;54.616;39.754;2023-04-29T10:28:32;68.57;;;34.10;;
74636;SDS011;63141;54.616;39.754;2023-04-29T10:31:46;52.35;;;30.65;;
74636;SDS011;63141;54.616;39.754;2023-04-29T10:35:05;55.80;;;31.13;;
74636;SDS011;63141;54.616;39.754;2023-04-29T10:38:36;56.53;;;30.17;;
74636;SDS011;63141;54.616;39.754;2023-04-29T10:41:54;53.03;;;27.63;;
74636;SDS011;63141;54.616;39.754;2023-04-29T10:48:34;47.00;;;25.33;;
74636;SDS011;63141;54.616;39.754;2023-04-29T10:51:44;44.45;;;25.13;;
74636;SDS011;63141;54.616;39.754;2023-04-29T10:55:07;39.65;;;23.17;;
74636;SDS011;63141;54.616;39.754;2023-04-29T10:58:42;46.50;;;24.98;;
74636;SDS011;63141;54.616;39.754;2023-04-29T11:02:01;44.28;;;22.30;;
74636;SDS011;63141;54.616;39.754;2023-04-29T11:05:42;44.95;;;24.25;;
74636;SDS011;63141;54.616;39.754;2023-04-29T11:09:01;38.10;;;21.50;;
74636;SDS011;63141;54.616;39.754;2023-04-29T11:12:28;41.30;;;21.58;;
74636;SDS011;63141;54.616;39.754;2023-04-29T11:16:02;36.72;;;21.17;;
74636;SDS011;63141;54.616;39.754;2023-04-29T11:22:55;37.28;;;20.17;;
74636;SDS011;63141;54.616;39.754;2023-04-29T11:26:21;37.85;;;20.05;;
74636;SDS011;63141;54.616;39.754;2023-04-29T11:29:27;34.25;;;19.42;;
74636;SDS011;63141;54.616;39.754;2023-04-29T11:32:37;34.92;;;19.17;;
74636;SDS011;63141;54.616;39.754;2023-04-29T11:35:55;31.30;;;18.75;;
74636;SDS011;63141;54.616;39.754;2023-04-29T11:39:06;33.03;;;18.10;;
74636;SDS011;63141;54.616;39.754;2023-04-29T11:42:20;29.55;;;16.90;;
74636;SDS011;63141;54.616;39.754;2023-04-29T11:45:38;29.20;;;17.48;;
74636;SDS011;63141;54.616;39.754;2023-04-29T11:48:46;29.42;;;16.17;;
74636;SDS011;63141;54.616;39.754;2023-04-29T11:51:59;34.63;;;17.48;;
74636;SDS011;63141;54.616;39.754;2023-04-29T11:55:10;36.40;;;17.95;;
74636;SDS011;63141;54.616;39.754;2023-04-29T11:58:23;30.13;;;16.27;;
74636;SDS011;63141;54.616;39.754;2023-04-29T12:01:34;27.55;;;16.23;;
74636;SDS011;63141;54.616;39.754;2023-04-29T12:05:06;28.30;;;15.82;;
74636;SDS011;63141;54.616;39.754;2023-04-29T12:08:18;26.92;;;14.88;;
74636;SDS011;63141;54.616;39.754;2023-04-29T12:11:24;25.42;;;14.75;;
74636;SDS011;63141;54.616;39.754;2023-04-29T12:14:37;21.55;;;13.57;;
74636;SDS011;63141;54.616;39.754;2023-04-29T12:17:44;27.05;;;13.88;;
74636;SDS011;63141;54.616;39.754;2023-04-29T12:20:54;27.02;;;14.02;;
74636;SDS011;63141;54.616;39.754;2023-04-29T12:24:15;25.60;;;13.48;;
74636;SDS011;63141;54.616;39.754;2023-04-29T12:27:22;19.90;;;12.57;;
74636;SDS011;63141;54.616;39.754;2023-04-29T12:30:49;24.13;;;12.45;;
74636;SDS011;63141;54.616;39.754;2023-04-29T12:34:06;21.95;;;13.80;;
74636;SDS011;63141;54.616;39.754;2023-04-29T12:37:16;24.15;;;12.93;;
74636;SDS011;63141;54.616;39.754;2023-04-29T12:40:35;21.92;;;12.35;;
74636;SDS011;63141;54.616;39.754;2023-04-29T12:43:45;20.00;;;12.27;;
74636;SDS011;63141;54.616;39.754;2023-04-29T12:46:52;21.33;;;12.25;;
74636;SDS011;63141;54.616;39.754;2023-04-29T12:53:59;17.85;;;10.85;;
74636;SDS011;63141;54.616;39.754;2023-04-29T12:57:08;21.02;;;11.43;;
74636;SDS011;63141;54.616;39.754;2023-04-29T13:00:26;21.08;;;12.05;;
74636;SDS011;63141;54.616;39.754;2023-04-29T13:04:07;18.35;;;10.63;;
74636;SDS011;63141;54.616;39.754;2023-04-29T13:07:32;19.55;;;11.18;;
74636;SDS011;63141;54.616;39.754;2023-04-29T13:10:40;20.10;;;10.23;;
74636;SDS011;63141;54.616;39.754;2023-04-29T13:13:44;18.80;;;11.15;;
74636;SDS011;63141;54.616;39.754;2023-04-29T13:16:45;17.00;;;9.65;;
74636;SDS011;63141;54.616;39.754;2023-04-29T13:20:02;18.08;;;10.60;;
74636;SDS011;63141;54.616;39.754;2023-04-29T13:23:23;15.00;;;10.05;;
74636;SDS011;63141;54.616;39.754;2023-04-29T13:26:51;15.48;;;9.02;;
74636;SDS011;63141;54.616;39.754;2023-04-29T13:29:58;16.27;;;9.57;;
74636;SDS011;63141;54.616;39.754;2023-04-29T13:33:05;14.07;;;8.48;;
74636;SDS011;63141;54.616;39.754;2023-04-29T13:36:06;15.80;;;9.65;;
74636;SDS011;63141;54.616;39.754;2023-04-29T13:39:41;19.77;;;10.18;;
74636;SDS011;63141;54.616;39.754;2023-04-29T13:42:54;16.07;;;8.70;;
74636;SDS011;63141;54.616;39.754;2023-04-29T13:46:01;16.55;;;9.38;;
74636;SDS011;63141;54.616;39.754;2023-04-29T13:49:26;15.55;;;8.38;;
74636;SDS011;63141;54.616;39.754;2023-04-29T13:52:48;15.00;;;8.32;;
74636;SDS011;63141;54.616;39.754;2023-04-29T13:56:00;14.23;;;8.40;;
74636;SDS011;63141;54.616;39.754;2023-04-29T13:59:19;30.98;;;9.50;;
74636;SDS011;63141;54.616;39.754;2023-04-29T14:02:27;53.90;;;11.82;;
74636;SDS011;63141;54.616;39.754;2023-04-29T14:05:51;107.50;;;27.23;;
74636;SDS011;63141;54.616;39.754;2023-04-29T14:09:04;336.90;;;83.78;;
74636;SDS011;63141;54.616;39.754;2023-04-29T14:12:26;651.33;;;244.57;;
74636;SDS011;63141;54.616;39.754;2023-04-29T14:15:43;813.83;;;305.83;;
74636;SDS011;63141;54.616;39.754;2023-04-29T14:19:00;814.30;;;329.38;;
74636;SDS011;63141;54.616;39.754;2023-04-29T14:22:11;856.20;;;336.52;;
74636;SDS011;63141;54.616;39.754;2023-04-29T14:25:30;816.70;;;322.58;;
74636;SDS011;63141;54.616;39.754;2023-04-29T14:28:35;751.50;;;302.85;;
74636;SDS011;63141;54.616;39.754;2023-04-29T14:32:06;733.55;;;302.75;;
74636;SDS011;63141;54.616;39.754;2023-04-29T14:35:26;773.53;;;298.08;;
74636;SDS011;63141;54.616;39.754;2023-04-29T14:38:48;708.95;;;281.70;;
74636;SDS011;63141;54.616;39.754;2023-04-29T14:42:10;724.47;;;292.92;;
74636;SDS011;63141;54.616;39.754;2023-04-29T14:45:15;725.47;;;288.75;;
74636;SDS011;63141;54.616;39.754;2023-04-29T14:48:31;724.30;;;283.25;;
74636;SDS011;63141;54.616;39.754;2023-04-29T14:51:41;661.60;;;268.27;;
74636;SDS011;63141;54.616;39.754;2023-04-29T14:54:45;689.88;;;275.25;;
74636;SDS011;63141;54.616;39.754;2023-04-29T14:57:52;661.70;;;272.65;;
74636;SDS011;63141;54.616;39.754;2023-04-29T15:01:05;700.22;;;279.83;;
74636;SDS011;63141;54.616;39.754;2023-04-29T15:04:38;653.83;;;255.98;;
74636;SDS011;63141;54.616;39.754;2023-04-29T15:07:49;681.20;;;275.30;;
74636;SDS011;63141;54.616;39.754;2023-04-29T15:10:59;683.60;;;277.70;;
74636;SDS011;63141;54.616;39.754;2023-04-29T15:14:09;615.08;;;249.82;;
74636;SDS011;63141;54.616;39.754;2023-04-29T15:17:31;620.08;;;253.90;;
74636;SDS011;63141;54.616;39.754;2023-04-29T15:20:36;603.97;;;252.60;;
74636;SDS011;63141;54.616;39.754;2023-04-29T15:23:52;585.92;;;242.50;;
74636;SDS011;63141;54.616;39.754;2023-04-29T15:26:54;564.13;;;234.68;;
74636;SDS011;63141;54.616;39.754;2023-04-29T15:29:58;582.63;;;240.30;;
74636;SDS011;63141;54.616;39.754;2023-04-29T15:33:25;552.13;;;227.27;;
74636;SDS011;63141;54.616;39.754;2023-04-29T15:36:29;560.90;;;233.95;;
74636;SDS011;63141;54.616;39.754;2023-04-29T15:39:42;537.17;;;221.73;;
74636;SDS011;63141;54.616;39.754;2023-04-29T15:43:09;518.45;;;211.02;;
74636;SDS011;63141;54.616;39.754;2023-04-29T15:46:19;543.67;;;215.25;;
74636;SDS011;63141;54.616;39.754;2023-04-29T15:49:32;525.78;;;211.30;;
74636;SDS011;63141;54.616;39.754;2023-04-29T15:52:42;520.95;;;205.13;;
74636;SDS011;63141;54.616;39.754;2023-04-29T15:55:52;522.33;;;208.35;;
74636;SDS011;63141;54.616;39.754;2023-04-29T15:58:54;527.05;;;199.65;;
74636;SDS011;63141;54.616;39.754;2023-04-29T16:02:07;507.00;;;196.20;;
74636;SDS011;63141;54.616;39.754;2023-04-29T16:05:17;492.42;;;190.68;;
74636;SDS011;63141;54.616;39.754;2023-04-29T16:08:30;485.27;;;186.85;;
74636;SDS011;63141;54.616;39.754;2023-04-29T16:11:52;501.38;;;188.07;;
74636;SDS011;63141;54.616;39.754;2023-04-29T16:15:04;501.48;;;188.38;;
74636;SDS011;63141;54.616;39.754;2023-04-29T16:18:28;484.17;;;184.23;;
74636;SDS011;63141;54.616;39.754;2023-04-29T16:21:47;493.23;;;181.20;;
74636;SDS011;63141;54.616;39.754;2023-04-29T16:24:55;470.05;;;179.23;;
74636;SDS011;63141;54.616;39.754;2023-04-29T16:28:08;460.80;;;171.20;;
74636;SDS011;63141;54.616;39.754;2023-04-29T16:31:12;448.88;;;165.80;;
74636;SDS011;63141;54.616;39.754;2023-04-29T16:34:21;453.45;;;155.80;;
74636;SDS011;63141;54.616;39.754;2023-04-29T16:37:37;440.27;;;147.87;;
74636;SDS011;63141;54.616;39.754;2023-04-29T16:40:47;426.23;;;150.00;;
74636;SDS011;63141;54.616;39.754;2023-04-29T16:43:56;405.52;;;139.52;;
74636;SDS011;63141;54.616;39.754;2023-04-29T16:47:15;406.88;;;137.15;;
74636;SDS011;63141;54.616;39.754;2023-04-29T16:50:46;392.88;;;133.38;;
74636;SDS011;63141;54.616;39.754;2023-04-29T16:53:48;368.35;;;130.40;;
74636;SDS011;63141;54.616;39.754;2023-04-29T16:57:21;376.10;;;124.20;;
74636;SDS011;63141;54.616;39.754;2023-04-29T17:00:35;369.85;;;124.95;;
74636;SDS011;63141;54.616;39.754;2023-04-29T17:03:45;340.20;;;120.83;;
74636;SDS011;63141;54.616;39.754;2023-04-29T17:07:08;347.08;;;122.47;;
74636;SDS011;63141;54.616;39.754;2023-04-29T17:10:27;335.38;;;116.43;;
74636;SDS011;63141;54.616;39.754;2023-04-29T17:13:50;338.45;;;115.80;;
74636;SDS011;63141;54.616;39.754;2023-04-29T17:16:57;340.85;;;110.85;;
74636;SDS011;63141;54.616;39.754;2023-04-29T17:20:04;335.95;;;110.25;;
74636;SDS011;63141;54.616;39.754;2023-04-29T17:23:21;333.90;;;109.15;;
74636;SDS011;63141;54.616;39.754;2023-04-29T17:26:26;324.90;;;105.38;;
74636;SDS011;63141;54.616;39.754;2023-04-29T17:29:39;302.15;;;100.35;;
74636;SDS011;63141;54.616;39.754;2023-04-29T17:32:41;291.63;;;98.90;;
74636;SDS011;63141;54.616;39.754;2023-04-29T17:35:56;321.23;;;101.72;;
74636;SDS011;63141;54.616;39.754;2023-04-29T17:39:06;296.98;;;93.57;;
74636;SDS011;63141;54.616;39.754;2023-04-29T17:42:20;269.77;;;90.65;;
74636;SDS011;63141;54.616;39.754;2023-04-29T17:45:24;240.85;;;79.75;;
74636;SDS011;63141;54.616;39.754;2023-04-29T17:48:43;265.85;;;84.70;;
74636;SDS011;63141;54.616;39.754;2023-04-29T17:52:12;229.55;;;76.15;;
74636;SDS011;63141;54.616;39.754;2023-04-29T17:55:38;244.93;;;84.63;;
74636;SDS011;63141;54.616;39.754;2023-04-29T17:58:52;208.23;;;66.55;;
74636;SDS011;63141;54.616;39.754;2023-04-29T18:01:57;217.85;;;73.85;;
74636;SDS011;63141;54.616;39.754;2023-04-29T18:05:03;220.02;;;68.40;;
74636;SDS011;63141;54.616;39.754;2023-04-29T18:08:08;183.95;;;67.55;;
74636;SDS011;63141;54.616;39.754;2023-04-29T18:11:30;184.65;;;66.45;;
74636;SDS011;63141;54.616;39.754;2023-04-29T18:14:40;183.45;;;66.15;;
74636;SDS011;63141;54.616;39.754;2023-04-29T18:18:06;179.55;;;58.80;;
74636;SDS011;63141;54.616;39.754;2023-04-29T18:21:23;171.63;;;57.80;;
74636;SDS011;63141;54.616;39.754;2023-04-29T18:24:28;150.40;;;52.22;;
74636;SDS011;63141;54.616;39.754;2023-04-29T18:28:03;141.40;;;49.00;;
74636;SDS011;63141;54.616;39.754;2023-04-29T18:31:32;143.57;;;46.75;;
74636;SDS011;63141;54.616;39.754;2023-04-29T18:34:55;132.38;;;47.83;;
74636;SDS011;63141;54.616;39.754;2023-04-29T18:38:11;125.32;;;43.70;;
74636;SDS011;63141;54.616;39.754;2023-04-29T18:41:37;872.28;;;598.45;;
74636;SDS011;63141;54.616;39.754;2023-04-29T18:45:24;119.85;;;45.25;;
74636;SDS011;63141;54.616;39.754;2023-04-29T18:48:31;125.72;;;43.95;;
74636;SDS011;63141;54.616;39.754;2023-04-29T18:51:55;111.30;;;42.40;;
74636;SDS011;63141;54.616;39.754;2023-04-29T18:55:08;105.78;;;38.58;;